Time,TemperatureF,DewpointF,PressureIn,WindDirection,WindDirectionDegrees,WindSpeedMPH,WindSpeedGustMPH,Humidity,HourlyPrecipIn,Conditions,Clouds,dailyrainin,SoftwareType,DateUTC
2013-08-12 00:04:00,75.4,71.9,30.09,South,180,0.0,0.0,89,0.00,,,0.00,WUHU21623XXSP,2013-08-12 05:04:00,
2013-08-12 00:09:00,75.4,71.9,30.08,SSE,157,0.0,0.0,89,0.00,,,0.00,WUHU21623XXSP,2013-08-12 05:09:00,
2013-08-12 00:14:00,75.4,71.9,30.08,SSE,165,1.3,1.6,89,0.00,,,0.00,WUHU21623XXSP,2013-08-12 05:14:00,
2013-08-12 00:19:00,75.4,71.9,30.08,South,180,0.9,1.6,89,0.00,,,0.00,WUHU21623XXSP,2013-08-12 05:19:00,
2013-08-12 00:25:00,75.6,72.1,30.08,South,180,1.1,1.1,89,0.00,,,0.00,WUHU21623XXSP,2013-08-12 05:25:00,
2013-08-12 00:30:00,75.6,72.1,30.08,South,190,1.1,2.0,89,0.00,,,0.00,WUHU21623XXSP,2013-08-12 05:30:00,
2013-08-12 00:35:00,75.6,72.1,30.08,South,180,0.9,2.0,89,0.00,,,0.00,WUHU21623XXSP,2013-08-12 05:35:00,
2013-08-12 00:40:00,75.6,72.1,30.07,South,180,1.3,1.3,89,0.00,,,0.00,WUHU21623XXSP,2013-08-12 05:40:00,
2013-08-12 00:44:00,75.6,72.1,30.07,South,180,0.0,1.3,89,0.00,,,0.00,WUHU21623XXSP,2013-08-12 05:44:00,
2013-08-12 00:49:00,75.6,71.8,30.07,South,180,0.0,0.0,88,0.00,,,0.00,WUHU21623XXSP,2013-08-12 05:49:00,
2013-08-12 00:54:00,75.6,71.8,30.07,South,180,0.0,0.0,88,0.00,,,0.00,WUHU21623XXSP,2013-08-12 05:54:00,
2013-08-12 00:59:00,75.6,71.8,30.06,South,180,0.0,0.0,88,0.00,,,0.00,WUHU21623XXSP,2013-08-12 05:59:00,
2013-08-12 01:05:00,75.4,71.6,30.07,South,180,0.0,0.0,88,0.00,,,0.00,WUHU21623XXSP,2013-08-12 06:05:00,
2013-08-12 01:10:00,75.2,71.4,30.07,South,180,0.0,0.0,88,0.00,,,0.00,WUHU21623XXSP,2013-08-12 06:10:00,
2013-08-12 01:14:00,75.0,71.2,30.07,South,180,0.0,0.0,88,0.00,,,0.00,WUHU21623XXSP,2013-08-12 06:14:00,
2013-08-12 01:19:00,75.0,71.2,30.07,South,180,0.0,0.0,88,0.00,,,0.00,WUHU21623XXSP,2013-08-12 06:19:00,
2013-08-12 01:24:00,74.8,71.0,30.07,South,180,0.0,0.0,88,0.00,,,0.00,WUHU21623XXSP,2013-08-12 06:24:00,
2013-08-12 01:29:00,75.0,71.2,30.07,South,180,0.0,0.0,88,0.00,,,0.00,WUHU21623XXSP,2013-08-12 06:29:00,
2013-08-12 01:34:00,74.8,71.0,30.06,South,180,0.0,0.0,88,0.00,,,0.00,WUHU21623XXSP,2013-08-12 06:34:00,
2013-08-12 01:39:00,74.8,71.0,30.06,South,180,0.0,0.0,88,0.00,,,0.00,WUHU21623XXSP,2013-08-12 06:39:00,
2013-08-12 01:44:00,74.7,70.9,30.06,South,180,0.0,0.0,88,0.00,,,0.00,WUHU21623XXSP,2013-08-12 06:44:00,
2013-08-12 01:49:00,74.5,70.7,30.06,ESE,112,0.0,0.0,88,0.00,,,0.00,WUHU21623XXSP,2013-08-12 06:49:00,
2013-08-12 01:54:00,74.3,70.5,30.06,SE,135,0.0,0.0,88,0.00,,,0.00,WUHU21623XXSP,2013-08-12 06:54:00,
2013-08-12 01:59:00,74.3,70.5,30.06,SSE,157,0.9,0.9,88,0.00,,,0.00,WUHU21623XXSP,2013-08-12 06:59:00,
2013-08-12 02:04:00,74.3,70.5,30.06,South,180,0.0,0.9,88,0.00,,,0.00,WUHU21623XXSP,2013-08-12 07:04:00,
2013-08-12 02:09:00,74.5,71.0,30.06,South,180,1.5,2.5,89,0.00,,,0.00,WUHU21623XXSP,2013-08-12 07:09:00,
2013-08-12 02:14:00,74.7,71.2,30.06,South,180,2.5,2.9,89,0.00,,,0.00,WUHU21623XXSP,2013-08-12 07:14:00,
2013-08-12 02:19:00,74.8,71.3,30.06,South,180,0.0,2.9,89,0.00,,,0.00,WUHU21623XXSP,2013-08-12 07:19:00,
2013-08-12 02:24:00,74.8,71.3,30.06,South,173,1.4,2.7,89,0.00,,,0.00,WUHU21623XXSP,2013-08-12 07:24:00,
2013-08-12 02:29:00,74.8,71.3,30.06,SSW,202,1.1,2.7,89,0.00,,,0.00,WUHU21623XXSP,2013-08-12 07:29:00,
2013-08-12 02:34:00,75.0,71.5,30.06,South,180,0.0,1.5,89,0.00,,,0.00,WUHU21623XXSP,2013-08-12 07:34:00,
2013-08-12 02:39:00,74.8,71.3,30.06,SSW,193,0.8,1.5,89,0.00,,,0.00,WUHU21623XXSP,2013-08-12 07:39:00,
2013-08-12 02:44:00,74.8,71.3,30.06,South,180,0.7,2.5,89,0.00,,,0.00,WUHU21623XXSP,2013-08-12 07:44:00,
2013-08-12 02:49:00,74.8,71.3,30.06,South,175,1.6,4.3,89,0.00,,,0.00,WUHU21623XXSP,2013-08-12 07:49:00,
2013-08-12 02:54:00,74.8,71.3,30.06,SSW,202,0.7,4.3,89,0.00,,,0.00,WUHU21623XXSP,2013-08-12 07:54:00,
2013-08-12 02:59:00,74.8,71.3,30.06,SSW,202,0.0,2.2,89,0.00,,,0.00,WUHU21623XXSP,2013-08-12 07:59:00,
2013-08-12 03:04:00,74.8,71.3,30.06,SSW,202,0.6,1.6,89,0.00,,,0.00,WUHU21623XXSP,2013-08-12 08:04:00,
2013-08-12 03:09:00,74.8,71.3,30.06,South,187,1.5,3.1,89,0.00,,,0.00,WUHU21623XXSP,2013-08-12 08:09:00,
2013-08-12 03:14:00,74.8,71.3,30.06,South,174,1.7,3.6,89,0.00,,,0.00,WUHU21623XXSP,2013-08-12 08:14:00,
2013-08-12 03:19:00,74.8,71.3,30.06,South,180,1.6,3.6,89,0.00,,,0.00,WUHU21623XXSP,2013-08-12 08:19:00,
2013-08-12 03:24:00,74.8,71.3,30.06,South,180,4.0,5.4,89,0.00,,,0.00,WUHU21623XXSP,2013-08-12 08:24:00,
2013-08-12 03:29:00,74.8,71.3,30.05,SSW,202,2.9,5.4,89,0.00,,,0.00,WUHU21623XXSP,2013-08-12 08:29:00,
2013-08-12 03:34:00,74.8,71.3,30.05,South,176,1.4,4.3,89,0.00,,,0.00,WUHU21623XXSP,2013-08-12 08:34:00,
2013-08-12 03:39:00,74.8,71.3,30.06,SSW,192,1.8,4.3,89,0.00,,,0.00,WUHU21623XXSP,2013-08-12 08:39:00,
2013-08-12 03:44:00,74.8,71.3,30.06,SSW,202,0.0,2.7,89,0.00,,,0.00,WUHU21623XXSP,2013-08-12 08:44:00,
2013-08-12 03:49:00,74.8,71.3,30.05,South,180,0.0,1.6,89,0.00,,,0.00,WUHU21623XXSP,2013-08-12 08:49:00,
2013-08-12 03:54:00,74.8,71.3,30.05,SSE,157,0.0,3.1,89,0.00,,,0.00,WUHU21623XXSP,2013-08-12 08:54:00,
2013-08-12 03:59:00,74.8,71.3,30.05,South,170,2.5,3.1,89,0.00,,,0.00,WUHU21623XXSP,2013-08-12 08:59:00,
2013-08-12 04:04:00,74.8,71.3,30.05,South,180,0.0,2.7,89,0.00,,,0.00,WUHU21623XXSP,2013-08-12 09:04:00,
2013-08-12 04:09:00,74.8,71.3,30.05,South,180,0.0,1.1,89,0.00,,,0.00,WUHU21623XXSP,2013-08-12 09:09:00,
2013-08-12 04:14:00,74.8,71.3,30.06,South,180,0.0,0.0,89,0.00,,,0.00,WUHU21623XXSP,2013-08-12 09:14:00,
2013-08-12 04:19:00,74.8,71.3,30.05,South,180,0.0,0.0,89,0.00,,,0.00,WUHU21623XXSP,2013-08-12 09:19:00,
2013-08-12 04:24:00,74.8,71.3,30.05,SSE,157,2.8,3.8,89,0.00,,,0.00,WUHU21623XXSP,2013-08-12 09:24:00,
2013-08-12 04:29:00,74.8,71.3,30.05,South,180,2.5,4.9,89,0.00,,,0.00,WUHU21623XXSP,2013-08-12 09:29:00,
2013-08-12 04:34:00,74.8,71.3,30.04,South,185,4.7,7.4,89,0.00,,,0.00,WUHU21623XXSP,2013-08-12 09:34:00,
2013-08-12 04:39:00,74.8,71.3,30.04,South,180,1.5,7.4,89,0.00,,,0.00,WUHU21623XXSP,2013-08-12 09:39:00,
2013-08-12 04:44:00,74.8,71.3,30.04,South,178,5.3,10.3,89,0.00,,,0.00,WUHU21623XXSP,2013-08-12 09:44:00,
2013-08-12 04:49:00,75.0,71.5,30.04,South,183,2.7,10.3,89,0.00,,,0.00,WUHU21623XXSP,2013-08-12 09:49:00,
2013-08-12 04:54:00,75.0,71.5,30.04,South,191,3.6,7.4,89,0.00,,,0.00,WUHU21623XXSP,2013-08-12 09:54:00,
2013-08-12 04:59:00,75.0,71.5,30.04,SSW,202,0.0,7.4,89,0.00,,,0.00,WUHU21623XXSP,2013-08-12 09:59:00,
2013-08-12 05:04:00,74.8,71.3,30.03,SSW,195,1.6,6.9,89,0.00,,,0.00,WUHU21623XXSP,2013-08-12 10:04:00,
2013-08-12 05:09:00,74.8,71.3,30.04,SSW,198,1.9,6.9,89,0.00,,,0.00,WUHU21623XXSP,2013-08-12 10:09:00,
2013-08-12 05:14:00,74.8,71.0,30.03,SSW,205,2.5,4.7,88,0.00,,,0.00,WUHU21623XXSP,2013-08-12 10:14:00,
2013-08-12 05:19:00,74.8,71.0,30.04,South,190,1.9,5.6,88,0.00,,,0.00,WUHU21623XXSP,2013-08-12 10:19:00,
2013-08-12 05:24:00,74.8,71.0,30.04,South,191,2.2,5.6,88,0.00,,,0.00,WUHU21623XXSP,2013-08-12 10:24:00,
2013-08-12 05:29:00,74.8,71.3,30.04,SSW,202,0.9,5.1,89,0.00,,,0.00,WUHU21623XXSP,2013-08-12 10:29:00,
2013-08-12 05:34:00,74.7,71.2,30.04,South,180,5.6,5.6,89,0.00,,,0.00,WUHU21623XXSP,2013-08-12 10:34:00,
2013-08-12 05:39:00,74.5,71.0,30.04,South,181,2.0,5.6,89,0.00,,,0.00,WUHU21623XXSP,2013-08-12 10:39:00,
2013-08-12 05:44:00,74.5,71.0,30.04,South,180,0.0,3.1,89,0.00,,,0.00,WUHU21623XXSP,2013-08-12 10:44:00,
2013-08-12 05:49:00,74.5,71.0,30.05,South,180,0.0,0.7,89,0.00,,,0.00,WUHU21623XXSP,2013-08-12 10:49:00,
2013-08-12 05:54:00,74.5,71.0,30.05,SSW,210,1.5,2.2,89,0.00,,,0.00,WUHU21623XXSP,2013-08-12 10:54:00,
2013-08-12 05:59:00,74.5,71.0,30.05,SSE,157,2.5,4.0,89,0.00,,,0.00,WUHU21623XXSP,2013-08-12 10:59:00,
2013-08-12 06:05:00,74.5,71.0,30.05,SSE,157,0.0,4.0,89,0.00,,,0.00,WUHU21623XXSP,2013-08-12 11:05:00,
2013-08-12 06:10:00,74.3,70.8,30.05,SSW,202,1.6,2.5,89,0.00,,,0.00,WUHU21623XXSP,2013-08-12 11:10:00,
2013-08-12 06:15:00,74.3,70.8,30.05,SSW,202,0.0,1.6,89,0.00,,,0.00,WUHU21623XXSP,2013-08-12 11:15:00,
2013-08-12 06:20:00,74.1,70.6,30.05,SSE,157,0.0,0.0,89,0.00,,,0.00,WUHU21623XXSP,2013-08-12 11:20:00,
2013-08-12 06:25:00,74.1,70.6,30.05,SSW,202,1.8,1.8,89,0.00,,,0.00,WUHU21623XXSP,2013-08-12 11:25:00,
2013-08-12 06:30:00,74.1,70.6,30.06,SW,225,0.0,1.8,89,0.00,,,0.00,WUHU21623XXSP,2013-08-12 11:30:00,
2013-08-12 06:35:00,74.1,70.6,30.05,SSW,202,0.0,0.2,89,0.00,,,0.00,WUHU21623XXSP,2013-08-12 11:35:00,
2013-08-12 06:40:00,73.9,70.4,30.06,SSW,200,3.7,4.9,89,0.00,,,0.00,WUHU21623XXSP,2013-08-12 11:40:00,
2013-08-12 06:45:00,74.1,70.6,30.05,SW,225,0.7,4.9,89,0.00,,,0.00,WUHU21623XXSP,2013-08-12 11:45:00,
2013-08-12 06:50:00,73.9,70.4,30.05,SSW,202,0.0,2.2,89,0.00,,,0.00,WUHU21623XXSP,2013-08-12 11:50:00,
2013-08-12 06:55:00,73.9,70.4,30.06,SSW,202,0.0,0.0,89,0.00,,,0.00,WUHU21623XXSP,2013-08-12 11:55:00,
2013-08-12 07:00:00,74.1,70.6,30.06,West,270,0.0,0.0,89,0.00,,,0.00,WUHU21623XXSP,2013-08-12 12:00:00,
2013-08-12 07:05:00,74.1,70.6,30.06,NNW,337,0.0,0.0,89,0.00,,,0.00,WUHU21623XXSP,2013-08-12 12:05:00,
2013-08-12 07:10:00,74.1,70.6,30.07,NNW,337,0.0,0.0,89,0.00,,,0.00,WUHU21623XXSP,2013-08-12 12:10:00,
2013-08-12 07:15:00,74.1,70.6,30.07,North,357,1.1,1.8,89,0.00,,,0.00,WUHU21623XXSP,2013-08-12 12:15:00,
2013-08-12 07:20:00,74.1,70.6,30.06,NNE,22,0.0,1.8,89,0.00,,,0.00,WUHU21623XXSP,2013-08-12 12:20:00,
2013-08-12 07:25:00,74.1,70.6,30.06,NNE,22,0.0,1.6,89,0.00,,,0.00,WUHU21623XXSP,2013-08-12 12:25:00,
2013-08-12 07:30:00,74.1,70.6,30.07,North,0,0.0,1.6,89,0.00,,,0.00,WUHU21623XXSP,2013-08-12 12:30:00,
2013-08-12 07:35:00,74.3,70.8,30.06,North,0,0.0,1.6,89,0.00,,,0.00,WUHU21623XXSP,2013-08-12 12:35:00,
2013-08-12 07:40:00,74.3,70.8,30.06,North,0,0.0,0.0,89,0.00,,,0.00,WUHU21623XXSP,2013-08-12 12:40:00,
2013-08-12 07:45:00,74.5,71.0,30.06,North,0,0.0,0.0,89,0.00,,,0.00,WUHU21623XXSP,2013-08-12 12:45:00,
2013-08-12 07:50:00,74.5,71.0,30.06,NNE,22,0.0,2.0,89,0.00,,,0.00,WUHU21623XXSP,2013-08-12 12:50:00,
2013-08-12 07:55:00,74.5,71.0,30.07,NNE,22,0.0,2.0,89,0.00,,,0.00,WUHU21623XXSP,2013-08-12 12:55:00,
2013-08-12 08:00:00,74.5,71.0,30.07,NNE,22,0.0,2.0,89,0.00,,,0.00,WUHU21623XXSP,2013-08-12 13:00:00,
2013-08-12 08:05:00,74.5,71.0,30.07,NNE,22,0.0,0.9,89,0.00,,,0.00,WUHU21623XXSP,2013-08-12 13:05:00,
2013-08-12 08:10:00,74.5,71.0,30.07,NNE,22,0.2,2.7,89,0.00,,,0.00,WUHU21623XXSP,2013-08-12 13:10:00,
2013-08-12 08:15:00,74.7,71.2,30.07,NE,45,2.7,2.7,89,0.00,,,0.00,WUHU21623XXSP,2013-08-12 13:15:00,
2013-08-12 08:20:00,74.8,71.3,30.07,NNE,22,1.8,2.9,89,0.00,,,0.00,WUHU21623XXSP,2013-08-12 13:20:00,
2013-08-12 08:25:00,75.0,71.5,30.08,ESE,112,0.0,2.9,89,0.00,,,0.00,WUHU21623XXSP,2013-08-12 13:25:00,
2013-08-12 08:30:00,75.0,71.5,30.07,ESE,112,0.0,0.0,89,0.00,,,0.00,WUHU21623XXSP,2013-08-12 13:30:00,
2013-08-12 08:35:00,75.2,71.7,30.07,ESE,112,0.0,0.0,89,0.00,,,0.00,WUHU21623XXSP,2013-08-12 13:35:00,
2013-08-12 08:40:00,75.4,71.9,30.07,East,90,0.0,0.0,89,0.00,,,0.00,WUHU21623XXSP,2013-08-12 13:40:00,
2013-08-12 08:45:00,75.6,72.1,30.07,ENE,67,0.0,0.0,89,0.00,,,0.00,WUHU21623XXSP,2013-08-12 13:45:00,
2013-08-12 08:50:00,75.7,72.2,30.07,SE,135,0.0,0.0,89,0.00,,,0.00,WUHU21623XXSP,2013-08-12 13:50:00,
2013-08-12 08:55:00,75.9,72.4,30.06,South,180,0.4,0.7,89,0.00,,,0.00,WUHU21623XXSP,2013-08-12 13:55:00,
2013-08-12 09:00:00,76.1,72.6,30.06,SSE,157,0.0,0.7,89,0.00,,,0.00,WUHU21623XXSP,2013-08-12 14:00:00,
2013-08-12 09:05:00,76.3,72.8,30.06,ESE,112,0.0,0.4,89,0.00,,,0.00,WUHU21623XXSP,2013-08-12 14:05:00,
2013-08-12 09:10:00,77.0,73.5,30.06,South,180,0.0,0.4,89,0.00,,,0.00,WUHU21623XXSP,2013-08-12 14:10:00,
2013-08-12 09:15:00,78.1,74.6,30.06,South,170,1.7,4.3,89,0.00,,,0.00,WUHU21623XXSP,2013-08-12 14:15:00,
2013-08-12 09:20:00,78.6,75.1,30.06,South,172,2.3,4.3,89,0.00,,,0.00,WUHU21623XXSP,2013-08-12 14:20:00,
2013-08-12 09:25:00,79.3,75.1,30.06,SSW,199,1.5,3.4,87,0.00,,,0.00,WUHU21623XXSP,2013-08-12 14:25:00,
2013-08-12 09:30:00,79.5,75.3,30.06,SSW,192,2.3,5.1,87,0.00,,,0.00,WUHU21623XXSP,2013-08-12 14:30:00,
2013-08-12 09:35:00,80.4,76.2,30.06,SSW,205,1.8,5.1,87,0.00,,,0.00,WUHU21623XXSP,2013-08-12 14:35:00,
2013-08-12 09:40:00,81.7,77.1,30.06,SW,225,7.8,9.4,86,0.00,,,0.00,WUHU21623XXSP,2013-08-12 14:40:00,
2013-08-12 09:45:00,82.6,77.7,30.06,WSW,247,2.5,9.4,85,0.00,,,0.00,WUHU21623XXSP,2013-08-12 14:45:00,
2013-08-12 09:50:00,83.5,78.2,30.06,SW,225,5.1,7.8,84,0.00,,,0.00,WUHU21623XXSP,2013-08-12 14:50:00,
2013-08-12 09:55:00,83.5,77.5,30.06,SW,219,2.3,8.5,82,0.00,,,0.00,WUHU21623XXSP,2013-08-12 14:55:00,
2013-08-12 10:00:00,83.1,77.1,30.06,SSW,202,1.1,8.5,82,0.00,,,0.00,WUHU21623XXSP,2013-08-12 15:00:00,
2013-08-12 10:05:00,82.6,76.3,30.06,SSW,202,3.4,6.9,81,0.00,,,0.00,WUHU21623XXSP,2013-08-12 15:05:00,
2013-08-12 10:10:00,82.0,76.1,30.06,SSW,210,2.8,5.8,82,0.00,,,0.00,WUHU21623XXSP,2013-08-12 15:10:00,
2013-08-12 10:15:00,81.7,75.8,30.06,SW,217,5.3,7.2,82,0.00,,,0.00,WUHU21623XXSP,2013-08-12 15:15:00,
2013-08-12 10:20:00,82.2,76.3,30.06,SW,217,3.4,8.9,82,0.00,,,0.00,WUHU21623XXSP,2013-08-12 15:20:00,
2013-08-12 10:25:00,82.6,76.6,30.06,WSW,247,3.6,8.9,82,0.00,,,0.00,WUHU21623XXSP,2013-08-12 15:25:00,
2013-08-12 10:30:00,82.8,76.8,30.06,WSW,247,6.7,6.7,82,0.00,,,0.00,WUHU21623XXSP,2013-08-12 15:30:00,
2013-08-12 10:35:00,83.1,77.1,30.06,SW,225,7.2,7.2,82,0.00,,,0.00,WUHU21623XXSP,2013-08-12 15:35:00,
2013-08-12 10:40:00,83.1,77.1,30.06,SW,225,6.0,7.2,82,0.00,,,0.00,WUHU21623XXSP,2013-08-12 15:40:00,
2013-08-12 10:45:00,83.5,77.5,30.06,SW,235,4.2,8.9,82,0.00,,,0.00,WUHU21623XXSP,2013-08-12 15:45:00,
2013-08-12 10:50:00,83.8,77.5,30.07,SW,221,3.8,8.9,81,0.00,,,0.00,WUHU21623XXSP,2013-08-12 15:50:00,
2013-08-12 10:55:00,83.8,77.5,30.07,SSW,208,3.4,6.0,81,0.00,,,0.00,WUHU21623XXSP,2013-08-12 15:55:00,
2013-08-12 11:00:00,84.0,77.7,30.07,WNW,292,3.5,8.1,81,0.00,,,0.00,WUHU21623XXSP,2013-08-12 16:00:00,
2013-08-12 11:05:00,84.7,78.3,30.06,WSW,240,1.5,8.1,81,0.00,,,0.00,WUHU21623XXSP,2013-08-12 16:05:00,
2013-08-12 11:10:00,84.9,78.2,30.06,SW,225,4.9,5.8,80,0.00,,,0.00,WUHU21623XXSP,2013-08-12 16:10:00,
2013-08-12 11:15:00,84.7,77.6,30.06,SSW,202,0.0,5.8,79,0.00,,,0.00,WUHU21623XXSP,2013-08-12 16:15:00,
2013-08-12 11:20:00,84.7,77.6,30.06,SSW,202,4.3,6.0,79,0.00,,,0.00,WUHU21623XXSP,2013-08-12 16:20:00,
2013-08-12 11:25:00,84.9,77.8,30.06,SSW,202,6.7,8.3,79,0.00,,,0.00,WUHU21623XXSP,2013-08-12 16:25:00,
2013-08-12 11:30:00,84.7,77.6,30.06,SW,223,5.9,8.7,79,0.00,,,0.00,WUHU21623XXSP,2013-08-12 16:30:00,
2013-08-12 11:35:00,84.0,76.9,30.06,SW,225,7.2,8.7,79,0.00,,,0.00,WUHU21623XXSP,2013-08-12 16:35:00,
2013-08-12 11:40:00,83.7,76.6,30.06,SSW,202,4.4,7.6,79,0.00,,,0.00,WUHU21623XXSP,2013-08-12 16:40:00,
2013-08-12 11:45:00,83.1,76.4,30.06,SW,225,4.0,6.9,80,0.00,,,0.00,WUHU21623XXSP,2013-08-12 16:45:00,
2013-08-12 11:50:00,82.9,76.2,30.06,SW,225,4.5,6.9,80,0.00,,,0.00,WUHU21623XXSP,2013-08-12 16:50:00,
2013-08-12 11:55:00,82.8,76.5,30.05,SSW,206,1.2,6.9,81,0.00,,,0.00,WUHU21623XXSP,2013-08-12 16:55:00,
2013-08-12 12:00:00,82.2,75.9,30.05,SW,225,4.3,6.5,81,0.04,,,0.04,WUHU21623XXSP,2013-08-12 17:00:00,
2013-08-12 12:05:00,81.3,75.4,30.05,SSW,202,0.0,6.9,82,0.13,,,0.13,WUHU21623XXSP,2013-08-12 17:05:00,
2013-08-12 12:10:00,81.1,75.9,30.04,SW,225,0.0,6.9,84,0.13,,,0.13,WUHU21623XXSP,2013-08-12 17:10:00,
2013-08-12 12:15:00,81.5,76.6,30.04,South,180,0.0,0.9,85,0.13,,,0.13,WUHU21623XXSP,2013-08-12 17:15:00,
2013-08-12 12:20:00,82.0,77.1,30.03,NNE,22,0.0,0.9,85,0.13,,,0.13,WUHU21623XXSP,2013-08-12 17:20:00,
2013-08-12 12:25:00,82.9,78.0,30.03,North,0,0.0,0.7,85,0.13,,,0.13,WUHU21623XXSP,2013-08-12 17:25:00,
2013-08-12 12:30:00,83.8,78.9,30.03,SSW,198,1.1,2.0,85,0.13,,,0.13,WUHU21623XXSP,2013-08-12 17:30:00,
2013-08-12 12:35:00,84.0,78.7,30.03,SW,221,3.1,7.4,84,0.13,,,0.13,WUHU21623XXSP,2013-08-12 17:35:00,
2013-08-12 12:40:00,84.4,78.8,30.03,WSW,247,2.9,7.6,83,0.13,,,0.13,WUHU21623XXSP,2013-08-12 17:40:00,
2013-08-12 12:45:00,84.9,79.2,30.02,SW,224,2.0,7.6,83,0.13,,,0.13,WUHU21623XXSP,2013-08-12 17:45:00,
2013-08-12 12:50:00,86.2,80.2,30.03,SW,220,5.1,8.5,82,0.13,,,0.13,WUHU21623XXSP,2013-08-12 17:50:00,
2013-08-12 12:55:00,87.1,80.7,30.02,WSW,239,2.9,9.8,81,0.13,,,0.13,WUHU21623XXSP,2013-08-12 17:55:00,
2013-08-12 13:00:00,88.0,81.6,30.02,SW,225,7.2,9.8,81,0.09,,,0.13,WUHU21623XXSP,2013-08-12 18:00:00,
2013-08-12 13:05:00,88.3,81.1,30.01,SSW,202,7.2,8.7,79,0.00,,,0.13,WUHU21623XXSP,2013-08-12 18:05:00,
2013-08-12 13:10:00,88.3,80.4,30.01,SW,215,5.4,8.7,77,0.00,,,0.13,WUHU21623XXSP,2013-08-12 18:10:00,
2013-08-12 13:16:00,88.3,80.7,30.01,SSW,204,5.6,8.7,78,0.00,,,0.13,WUHU21623XXSP,2013-08-12 18:16:00,
2013-08-12 13:21:00,88.5,80.6,30.01,SW,225,3.6,10.7,77,0.00,,,0.13,WUHU21623XXSP,2013-08-12 18:21:00,
2013-08-12 13:26:00,88.9,80.9,30.00,SW,223,3.8,10.7,77,0.00,,,0.13,WUHU21623XXSP,2013-08-12 18:26:00,
2013-08-12 13:31:00,89.2,80.8,30.00,WSW,247,2.9,9.8,76,0.00,,,0.13,WUHU21623XXSP,2013-08-12 18:31:00,
2013-08-12 13:36:00,89.8,81.4,30.00,North,0,7.4,7.4,76,0.00,,,0.13,WUHU21623XXSP,2013-08-12 18:36:00,
2013-08-12 13:41:00,90.1,81.3,29.99,WSW,247,5.1,7.4,75,0.00,,,0.13,WUHU21623XXSP,2013-08-12 18:41:00,
2013-08-12 13:46:00,90.3,81.1,29.99,WNW,292,0.0,7.2,74,0.00,,,0.13,WUHU21623XXSP,2013-08-12 18:46:00,
2013-08-12 13:51:00,90.7,81.5,29.99,West,270,0.0,7.2,74,0.00,,,0.13,WUHU21623XXSP,2013-08-12 18:51:00,
2013-08-12 13:56:00,91.2,82.0,29.99,West,263,2.3,6.9,74,0.00,,,0.13,WUHU21623XXSP,2013-08-12 18:56:00,
2013-08-12 14:01:00,91.6,82.0,29.99,NW,315,7.4,7.4,73,0.00,,,0.13,WUHU21623XXSP,2013-08-12 19:01:00,
2013-08-12 14:06:00,91.6,81.6,29.99,WSW,247,3.1,7.4,72,0.00,,,0.13,WUHU21623XXSP,2013-08-12 19:06:00,
2013-08-12 14:11:00,91.2,81.2,29.98,SSW,202,5.1,7.4,72,0.00,,,0.13,WUHU21623XXSP,2013-08-12 19:11:00,
2013-08-12 14:16:00,91.0,81.4,29.98,WSW,238,2.6,7.2,73,0.00,,,0.13,WUHU21623XXSP,2013-08-12 19:16:00,
2013-08-12 14:21:00,91.2,81.2,29.97,SW,234,3.8,7.2,72,0.00,,,0.13,WUHU21623XXSP,2013-08-12 19:21:00,
2013-08-12 14:26:00,91.2,81.2,29.97,SW,225,6.0,7.2,72,0.00,,,0.13,WUHU21623XXSP,2013-08-12 19:26:00,
2013-08-12 14:31:00,90.5,80.1,29.97,SSW,210,2.7,11.4,71,0.00,,,0.13,WUHU21623XXSP,2013-08-12 19:31:00,
2013-08-12 14:36:00,90.1,80.1,29.97,SW,225,6.9,11.4,72,0.00,,,0.13,WUHU21623XXSP,2013-08-12 19:36:00,
2013-08-12 14:41:00,90.1,80.1,29.97,SW,225,4.3,9.2,72,0.00,,,0.13,WUHU21623XXSP,2013-08-12 19:41:00,
2013-08-12 14:46:00,90.1,80.5,29.97,WSW,247,0.7,7.6,73,0.00,,,0.13,WUHU21623XXSP,2013-08-12 19:46:00,
2013-08-12 14:51:00,90.3,80.7,29.97,WSW,247,5.1,6.3,73,0.00,,,0.13,WUHU21623XXSP,2013-08-12 19:51:00,
2013-08-12 14:56:00,90.5,80.9,29.97,SSW,211,2.2,6.3,73,0.00,,,0.13,WUHU21623XXSP,2013-08-12 19:56:00,
2013-08-12 15:01:00,90.5,80.9,29.96,West,270,6.9,6.9,73,0.00,,,0.13,WUHU21623XXSP,2013-08-12 20:01:00,
2013-08-12 15:06:00,90.7,80.7,29.95,WSW,244,2.8,9.6,72,0.00,,,0.13,WUHU21623XXSP,2013-08-12 20:06:00,
2013-08-12 15:11:00,91.2,81.2,29.95,WSW,247,8.7,9.6,72,0.00,,,0.13,WUHU21623XXSP,2013-08-12 20:11:00,
2013-08-12 15:16:00,91.9,81.4,29.95,WSW,241,6.6,11.2,71,0.00,,,0.13,WUHU21623XXSP,2013-08-12 20:16:00,
2013-08-12 15:21:00,92.5,81.6,29.95,SW,225,7.4,11.2,70,0.00,,,0.13,WUHU21623XXSP,2013-08-12 20:21:00,
2013-08-12 15:26:00,92.8,81.0,29.94,SW,235,10.7,16.3,68,0.00,,,0.13,WUHU21623XXSP,2013-08-12 20:26:00,
2013-08-12 15:31:00,92.5,80.7,29.94,WSW,247,6.7,16.3,68,0.00,,,0.13,WUHU21623XXSP,2013-08-12 20:31:00,
2013-08-12 15:36:00,92.3,80.1,29.94,WSW,252,5.6,13.4,67,0.00,,,0.13,WUHU21623XXSP,2013-08-12 20:36:00,
2013-08-12 15:41:00,91.9,80.1,29.95,SW,236,7.8,15.4,68,0.00,,,0.13,WUHU21623XXSP,2013-08-12 20:41:00,
2013-08-12 15:46:00,91.6,79.8,29.94,WSW,238,8.1,15.4,68,0.00,,,0.13,WUHU21623XXSP,2013-08-12 20:46:00,
2013-08-12 15:51:00,91.2,80.3,29.94,SW,232,6.3,12.1,70,0.00,,,0.13,WUHU21623XXSP,2013-08-12 20:51:00,
2013-08-12 15:56:00,91.2,80.3,29.94,WSW,247,10.7,12.1,70,0.00,,,0.13,WUHU21623XXSP,2013-08-12 20:56:00,
2013-08-12 16:01:00,90.7,79.0,29.94,SW,232,7.2,13.4,68,0.00,,,0.13,WUHU21623XXSP,2013-08-12 21:01:00,
2013-08-12 16:06:00,90.7,79.0,29.95,WSW,247,7.4,13.4,68,0.00,,,0.13,WUHU21623XXSP,2013-08-12 21:06:00,
2013-08-12 16:11:00,90.7,79.4,29.94,WSW,250,7.8,13.2,69,0.00,,,0.13,WUHU21623XXSP,2013-08-12 21:11:00,
2013-08-12 16:16:00,90.7,79.4,29.95,WSW,247,0.4,13.2,69,0.00,,,0.13,WUHU21623XXSP,2013-08-12 21:16:00,
2013-08-12 16:21:00,90.3,79.5,29.94,WSW,247,6.0,9.8,70,0.00,,,0.13,WUHU21623XXSP,2013-08-12 21:21:00,
2013-08-12 16:26:00,90.1,79.3,29.94,West,270,0.0,6.0,70,0.00,,,0.13,WUHU21623XXSP,2013-08-12 21:26:00,
2013-08-12 16:31:00,89.8,79.4,29.94,North,0,0.0,6.0,71,0.00,,,0.13,WUHU21623XXSP,2013-08-12 21:31:00,
2013-08-12 16:36:00,89.4,79.4,29.94,WNW,292,0.0,0.0,72,0.00,,,0.13,WUHU21623XXSP,2013-08-12 21:36:00,
2013-08-12 16:41:00,88.9,79.4,29.94,SW,225,2.7,2.7,73,0.00,,,0.13,WUHU21623XXSP,2013-08-12 21:41:00,
2013-08-12 16:46:00,88.3,78.8,29.94,SW,214,4.3,8.3,73,0.00,,,0.13,WUHU21623XXSP,2013-08-12 21:46:00,
2013-08-12 16:51:00,87.6,77.7,29.94,SW,226,5.4,9.8,72,0.00,,,0.13,WUHU21623XXSP,2013-08-12 21:51:00,
2013-08-12 16:56:00,87.1,77.2,29.95,SW,221,5.6,10.1,72,0.00,,,0.13,WUHU21623XXSP,2013-08-12 21:56:00,
2013-08-12 17:01:00,86.5,76.6,29.95,SW,236,0.9,10.1,72,0.00,,,0.13,WUHU21623XXSP,2013-08-12 22:01:00,
2013-08-12 17:03:00,86.4,76.5,29.96,NW,315,0.0,10.1,72,0.00,,,0.13,WUHU21623XXSP,2013-08-12 22:03:00,
2013-08-12 17:04:00,86.2,76.3,29.96,North,0,0.0,10.1,72,0.00,,,0.13,WUHU21623XXSP,2013-08-12 22:04:00,
2013-08-12 17:05:00,86.2,76.3,29.96,North,0,0.0,10.1,72,0.00,,,0.13,WUHU21623XXSP,2013-08-12 22:05:00,
2013-08-12 17:06:00,86.2,76.8,29.96,North,0,6.7,6.7,73,0.00,,,0.13,WUHU21623XXSP,2013-08-12 22:06:00,
2013-08-12 17:07:00,86.0,76.6,29.96,North,0,7.8,8.9,73,0.00,,,0.13,WUHU21623XXSP,2013-08-12 22:07:00,
2013-08-12 17:08:00,85.8,76.8,29.96,NNE,14,9.3,15.7,74,0.00,,,0.13,WUHU21623XXSP,2013-08-12 22:08:00,
2013-08-12 17:09:00,85.6,76.6,29.96,NNE,13,9.4,15.7,74,0.00,,,0.13,WUHU21623XXSP,2013-08-12 22:09:00,
2013-08-12 17:10:00,85.5,76.1,29.96,North,0,14.5,15.7,73,0.00,,,0.13,WUHU21623XXSP,2013-08-12 22:10:00,
2013-08-12 17:11:00,84.9,75.5,29.96,NNW,337,15.7,17.2,73,0.00,,,0.13,WUHU21623XXSP,2013-08-12 22:11:00,
2013-08-12 17:21:00,81.3,71.6,29.95,NE,55,5.2,21.0,72,0.02,,,0.15,WUHU21623XXSP,2013-08-12 22:21:00,
2013-08-12 17:26:00,80.8,71.9,29.95,NE,45,4.3,9.4,74,0.02,,,0.15,WUHU21623XXSP,2013-08-12 22:26:00,
2013-08-12 17:31:00,80.2,71.3,29.95,NNE,22,6.3,7.4,74,0.02,,,0.15,WUHU21623XXSP,2013-08-12 22:31:00,
2013-08-12 17:36:00,79.3,71.2,29.94,SSE,157,0.0,7.6,76,0.04,,,0.17,WUHU21623XXSP,2013-08-12 22:36:00,
2013-08-12 17:41:00,78.6,71.3,29.94,SSW,202,0.9,7.6,78,0.04,,,0.17,WUHU21623XXSP,2013-08-12 22:41:00,
2013-08-12 17:46:00,77.9,71.0,29.93,SSE,157,0.0,0.9,79,0.04,,,0.17,WUHU21623XXSP,2013-08-12 22:46:00,
2013-08-12 17:51:00,77.5,70.9,29.93,NW,315,0.0,0.0,80,0.04,,,0.17,WUHU21623XXSP,2013-08-12 22:51:00,
2013-08-12 17:56:00,77.2,71.0,29.93,North,0,0.0,0.0,81,0.04,,,0.17,WUHU21623XXSP,2013-08-12 22:56:00,
2013-08-12 18:01:00,76.8,71.0,29.94,West,268,0.7,0.7,82,0.04,,,0.17,WUHU21623XXSP,2013-08-12 23:01:00,
2013-08-12 18:06:00,76.8,71.3,29.94,WSW,247,5.8,5.8,83,0.04,,,0.17,WUHU21623XXSP,2013-08-12 23:06:00,
2013-08-12 18:11:00,77.0,71.8,29.93,SW,230,0.9,5.8,84,0.04,,,0.17,WUHU21623XXSP,2013-08-12 23:11:00,
2013-08-12 18:16:00,77.0,71.8,29.94,South,180,4.5,6.3,84,0.04,,,0.17,WUHU21623XXSP,2013-08-12 23:16:00,
2013-08-12 18:21:00,77.2,72.0,29.95,SSW,211,5.1,6.7,84,0.02,,,0.17,WUHU21623XXSP,2013-08-12 23:21:00,
2013-08-12 18:26:00,77.2,72.0,29.95,SSW,202,9.8,9.8,84,0.02,,,0.17,WUHU21623XXSP,2013-08-12 23:26:00,
2013-08-12 18:31:00,76.8,71.7,29.94,SSW,201,7.5,9.8,84,0.02,,,0.17,WUHU21623XXSP,2013-08-12 23:31:00,
2013-08-12 18:36:00,76.6,71.1,29.94,South,180,4.3,9.8,83,0.00,,,0.17,WUHU21623XXSP,2013-08-12 23:36:00,
2013-08-12 18:41:00,76.5,71.0,29.94,South,180,4.3,8.7,83,0.00,,,0.17,WUHU21623XXSP,2013-08-12 23:41:00,
2013-08-12 18:46:00,76.1,70.3,29.95,SW,221,2.9,6.9,82,0.00,,,0.17,WUHU21623XXSP,2013-08-12 23:46:00,
2013-08-12 18:51:00,75.9,70.1,29.95,SW,225,3.8,6.5,82,0.02,,,0.19,WUHU21623XXSP,2013-08-12 23:51:00,
2013-08-12 18:56:00,75.7,69.9,29.95,South,186,2.3,5.6,82,0.02,,,0.19,WUHU21623XXSP,2013-08-12 23:56:00,
2013-08-12 19:01:00,75.4,69.6,29.95,SSW,202,0.2,4.9,82,0.02,,,0.19,WUHU21623XXSP,2013-08-13 00:01:00,
2013-08-12 19:06:00,75.0,69.5,29.93,South,180,0.0,5.4,83,0.02,,,0.19,WUHU21623XXSP,2013-08-13 00:06:00,
2013-08-12 19:11:00,74.7,69.3,29.93,SSW,202,2.0,5.4,83,0.02,,,0.19,WUHU21623XXSP,2013-08-13 00:11:00,
2013-08-12 19:16:00,74.5,69.1,29.93,West,270,0.0,3.4,83,0.02,,,0.19,WUHU21623XXSP,2013-08-13 00:16:00,
2013-08-12 19:21:00,74.1,69.0,29.94,West,270,0.0,0.0,84,0.02,,,0.19,WUHU21623XXSP,2013-08-13 00:21:00,
2013-08-12 19:26:00,74.1,69.0,29.95,West,270,0.0,0.0,84,0.04,,,0.21,WUHU21623XXSP,2013-08-13 00:26:00,
2013-08-12 19:31:00,73.9,68.8,29.95,West,270,0.0,0.0,84,0.04,,,0.21,WUHU21623XXSP,2013-08-13 00:31:00,
2013-08-12 19:36:00,73.8,68.7,29.94,SSE,157,0.0,0.0,84,0.06,,,0.23,WUHU21623XXSP,2013-08-13 00:36:00,
2013-08-12 19:41:00,73.6,68.8,29.95,SSE,157,0.0,0.0,85,0.06,,,0.23,WUHU21623XXSP,2013-08-13 00:41:00,
2013-08-12 19:46:00,73.4,68.6,29.94,ESE,112,0.0,0.0,85,0.06,,,0.23,WUHU21623XXSP,2013-08-13 00:46:00,
2013-08-12 19:51:00,73.2,68.5,29.95,SSW,202,0.0,0.0,85,0.04,,,0.23,WUHU21623XXSP,2013-08-13 00:51:00,
2013-08-12 19:56:00,73.2,68.5,29.95,South,180,0.0,0.0,85,0.04,,,0.23,WUHU21623XXSP,2013-08-13 00:56:00,
2013-08-12 20:01:00,73.0,68.3,29.95,ESE,112,0.0,0.0,85,0.04,,,0.23,WUHU21623XXSP,2013-08-13 01:01:00,
2013-08-12 20:06:00,73.0,68.3,29.95,SE,135,0.0,0.0,85,0.04,,,0.23,WUHU21623XXSP,2013-08-13 01:06:00,
2013-08-12 20:11:00,72.9,68.5,29.96,SE,135,0.0,0.0,86,0.04,,,0.23,WUHU21623XXSP,2013-08-13 01:11:00,
2013-08-12 20:16:00,72.9,68.5,29.97,ESE,112,0.0,0.0,86,0.04,,,0.23,WUHU21623XXSP,2013-08-13 01:16:00,
2013-08-12 20:21:00,72.7,68.3,29.98,South,180,0.0,0.0,86,0.04,,,0.23,WUHU21623XXSP,2013-08-13 01:21:00,
2013-08-12 20:26:00,72.7,68.3,29.99,ESE,112,0.0,0.0,86,0.02,,,0.23,WUHU21623XXSP,2013-08-13 01:26:00,
2013-08-12 20:31:00,72.7,68.3,30.00,SE,135,0.0,0.0,86,0.02,,,0.23,WUHU21623XXSP,2013-08-13 01:31:00,
2013-08-12 20:36:00,72.7,68.3,30.00,SE,135,0.0,0.0,86,0.00,,,0.23,WUHU21623XXSP,2013-08-13 01:36:00,
2013-08-12 20:41:00,72.7,68.6,30.00,East,90,0.0,0.0,87,0.00,,,0.23,WUHU21623XXSP,2013-08-13 01:41:00,
2013-08-12 20:46:00,72.5,68.4,30.01,ENE,67,0.0,0.0,87,0.00,,,0.23,WUHU21623XXSP,2013-08-13 01:46:00,
2013-08-12 20:51:00,72.5,68.4,30.01,SSE,157,0.0,0.0,87,0.00,,,0.23,WUHU21623XXSP,2013-08-13 01:51:00,
2013-08-12 20:56:00,72.5,68.4,30.01,SSE,157,0.0,0.0,87,0.00,,,0.23,WUHU21623XXSP,2013-08-13 01:56:00,
2013-08-12 21:01:00,72.3,68.2,30.01,South,180,0.0,0.0,87,0.00,,,0.23,WUHU21623XXSP,2013-08-13 02:01:00,
2013-08-12 21:06:00,72.5,68.4,30.01,South,180,0.0,0.0,87,0.00,,,0.23,WUHU21623XXSP,2013-08-13 02:06:00,
2013-08-12 21:11:00,72.3,68.2,30.01,South,180,0.0,0.0,87,0.00,,,0.23,WUHU21623XXSP,2013-08-13 02:11:00,
2013-08-12 21:16:00,72.3,68.2,30.02,SSE,157,0.0,0.0,87,0.00,,,0.23,WUHU21623XXSP,2013-08-13 02:16:00,
2013-08-12 21:21:00,72.3,68.2,30.01,South,180,0.0,0.0,87,0.00,,,0.23,WUHU21623XXSP,2013-08-13 02:21:00,
2013-08-12 21:26:00,72.3,68.5,30.01,SSE,157,1.8,1.8,88,0.00,,,0.23,WUHU21623XXSP,2013-08-13 02:26:00,
2013-08-12 21:31:00,72.3,68.5,30.01,South,173,1.2,2.9,88,0.00,,,0.23,WUHU21623XXSP,2013-08-13 02:31:00,
2013-08-12 21:36:00,72.3,68.5,30.01,South,180,0.0,2.9,88,0.00,,,0.23,WUHU21623XXSP,2013-08-13 02:36:00,
2013-08-12 21:41:00,72.1,68.4,30.01,South,187,1.3,2.0,88,0.00,,,0.23,WUHU21623XXSP,2013-08-13 02:41:00,
2013-08-12 21:46:00,72.1,68.4,30.01,South,182,2.0,3.1,88,0.00,,,0.23,WUHU21623XXSP,2013-08-13 02:46:00,
2013-08-12 21:51:00,72.1,68.4,30.00,SSW,202,2.5,3.6,88,0.00,,,0.23,WUHU21623XXSP,2013-08-13 02:51:00,
2013-08-12 21:56:00,72.1,68.4,30.00,SSW,202,0.0,3.6,88,0.00,,,0.23,WUHU21623XXSP,2013-08-13 02:56:00,
2013-08-12 22:01:00,72.1,68.4,30.00,SSW,202,0.0,2.2,88,0.00,,,0.23,WUHU21623XXSP,2013-08-13 03:01:00,
2013-08-12 22:06:00,72.0,68.3,30.00,SSE,157,0.0,0.0,88,0.00,,,0.23,WUHU21623XXSP,2013-08-13 03:06:00,
2013-08-12 22:11:00,72.0,68.3,30.00,SE,135,0.0,0.0,88,0.00,,,0.23,WUHU21623XXSP,2013-08-13 03:11:00,
2013-08-12 22:16:00,72.0,68.3,29.99,SE,135,0.0,0.0,88,0.00,,,0.23,WUHU21623XXSP,2013-08-13 03:16:00,
2013-08-12 22:21:00,72.0,68.3,29.99,SE,135,0.0,0.0,88,0.00,,,0.23,WUHU21623XXSP,2013-08-13 03:21:00,
2013-08-12 22:26:00,71.8,68.1,29.99,SE,135,0.0,0.0,88,0.00,,,0.23,WUHU21623XXSP,2013-08-13 03:26:00,
2013-08-12 22:31:00,71.8,68.1,29.99,South,180,0.0,0.0,88,0.00,,,0.23,WUHU21623XXSP,2013-08-13 03:31:00,
2013-08-12 22:36:00,71.8,68.1,29.99,SSW,202,0.0,0.0,88,0.00,,,0.23,WUHU21623XXSP,2013-08-13 03:36:00,
2013-08-12 22:41:00,71.8,68.1,29.98,SSW,202,0.0,0.0,88,0.00,,,0.23,WUHU21623XXSP,2013-08-13 03:41:00,
2013-08-12 22:46:00,71.8,68.1,29.98,SSE,157,0.0,0.0,88,0.00,,,0.23,WUHU21623XXSP,2013-08-13 03:46:00,
2013-08-12 22:52:00,71.8,68.1,29.98,South,180,0.0,0.0,88,0.00,,,0.23,WUHU21623XXSP,2013-08-13 03:52:00,
2013-08-12 22:57:00,71.8,68.1,29.98,SSW,200,1.9,3.8,88,0.00,,,0.23,WUHU21623XXSP,2013-08-13 03:57:00,
2013-08-12 23:01:00,71.8,68.1,29.97,SSE,157,0.0,3.8,88,0.00,,,0.23,WUHU21623XXSP,2013-08-13 04:01:00,
2013-08-12 23:06:00,71.8,68.4,29.97,South,180,4.9,4.9,89,0.00,,,0.23,WUHU21623XXSP,2013-08-13 04:06:00,
2013-08-12 23:11:00,71.8,68.4,29.98,South,185,2.2,4.9,89,0.00,,,0.23,WUHU21623XXSP,2013-08-13 04:11:00,
2013-08-12 23:16:00,71.8,68.4,29.97,South,180,2.7,4.9,89,0.00,,,0.23,WUHU21623XXSP,2013-08-13 04:16:00,
2013-08-12 23:21:00,71.6,68.2,29.97,SSW,202,0.0,3.6,89,0.00,,,0.23,WUHU21623XXSP,2013-08-13 04:21:00,
2013-08-12 23:26:00,71.4,68.0,29.98,SW,215,1.4,2.7,89,0.00,,,0.23,WUHU21623XXSP,2013-08-13 04:26:00,
2013-08-12 23:31:00,71.4,68.0,29.97,SW,225,1.1,2.0,89,0.00,,,0.23,WUHU21623XXSP,2013-08-13 04:31:00,
2013-08-12 23:36:00,71.4,68.0,29.97,SSW,202,0.0,1.1,89,0.00,,,0.23,WUHU21623XXSP,2013-08-13 04:36:00,
2013-08-12 23:41:00,71.2,67.8,29.97,SSW,202,0.0,0.0,89,0.00,,,0.23,WUHU21623XXSP,2013-08-13 04:41:00,
2013-08-12 23:46:00,71.2,67.8,29.97,SSW,202,0.2,0.2,89,0.00,,,0.23,WUHU21623XXSP,2013-08-13 04:46:00,
2013-08-12 23:51:00,71.2,67.8,29.97,SW,225,1.1,2.0,89,0.00,,,0.23,WUHU21623XXSP,2013-08-13 04:51:00,
2013-08-12 23:56:00,71.2,67.8,29.97,SSW,211,4.8,5.8,89,0.00,,,0.23,WUHU21623XXSP,2013-08-13 04:56:00,